createdAt,value
2018-05-16T00:00:08.831Z,8.50
2018-05-16T00:01:08.819Z,8.70
2018-05-16T00:02:08.825Z,7.90
2018-05-16T00:03:08.827Z,8.40
2018-05-16T00:04:08.846Z,8.80
2018-05-16T00:05:08.852Z,10.20
2018-05-16T00:06:08.841Z,8.90
2018-05-16T00:07:08.855Z,8.30
2018-05-16T00:08:08.850Z,7.90
2018-05-16T00:09:08.860Z,7.90
2018-05-16T00:10:08.860Z,8.40
2018-05-16T00:11:08.861Z,8.40
2018-05-16T00:12:08.864Z,9.80
2018-05-16T00:13:08.870Z,8.90
2018-05-16T00:14:08.874Z,8.80
2018-05-16T00:15:08.875Z,8.10
2018-05-16T00:18:14.613Z,8.40
2018-05-16T00:19:19.151Z,8.20
2018-05-16T00:22:08.949Z,7.90
2018-05-16T00:23:08.923Z,9.00
2018-05-16T00:24:14.623Z,8.10
2018-05-16T00:26:12.605Z,8.00
2018-05-16T00:27:13.617Z,10.50
2018-05-16T00:28:08.915Z,8.20
2018-05-16T00:29:08.934Z,8.70
2018-05-16T00:30:08.928Z,8.90
2018-05-16T00:32:57.128Z,8.60
2018-05-16T00:35:13.772Z,8.50
2018-05-16T00:36:13.359Z,8.80
2018-05-16T00:37:13.366Z,9.00
2018-05-16T00:38:13.357Z,9.10
2018-05-16T00:39:13.351Z,9.70
2018-05-16T00:40:13.366Z,9.00
2018-05-16T00:41:13.364Z,10.00
2018-05-16T00:42:13.363Z,8.50
2018-05-16T00:43:13.399Z,8.70
2018-05-16T00:44:13.373Z,8.50
2018-05-16T00:45:13.382Z,8.70
2018-05-16T00:46:13.385Z,10.10
2018-05-16T00:47:13.393Z,9.30
2018-05-16T00:48:13.395Z,8.70
2018-05-16T00:49:13.392Z,9.20
2018-05-16T00:50:13.392Z,9.50
2018-05-16T00:51:13.402Z,8.80
2018-05-16T00:52:13.408Z,7.70
2018-05-16T00:53:13.416Z,8.70
2018-05-16T00:54:13.416Z,8.20
2018-05-16T00:55:13.416Z,8.70
2018-05-16T00:56:13.418Z,8.80
2018-05-16T00:57:13.421Z,8.00
2018-05-16T00:58:13.432Z,8.90
2018-05-16T00:59:14.144Z,8.60
2018-05-16T01:00:13.430Z,8.20
2018-05-16T01:01:13.436Z,8.60
2018-05-16T01:02:13.435Z,8.40
2018-05-16T01:03:13.446Z,8.40
2018-05-16T01:04:13.445Z,8.20
2018-05-16T01:05:13.465Z,9.10
2018-05-16T01:06:13.449Z,7.30
2018-05-16T01:07:13.449Z,7.80
2018-05-16T01:08:13.458Z,7.80
2018-05-16T01:09:13.464Z,8.10
2018-05-16T01:10:13.462Z,8.20
2018-05-16T01:11:13.548Z,8.50
2018-05-16T01:12:13.475Z,7.90
2018-05-16T01:13:13.471Z,9.20
2018-05-16T01:14:13.478Z,9.10
2018-05-16T01:15:13.481Z,8.30
2018-05-16T01:16:13.485Z,8.20
2018-05-16T01:17:13.524Z,8.30
2018-05-16T01:18:13.494Z,8.20
2018-05-16T01:19:13.498Z,8.70
2018-05-16T01:20:13.503Z,8.70
2018-05-16T01:21:13.496Z,9.20
2018-05-16T01:22:13.499Z,9.20
2018-05-16T01:23:13.519Z,9.60
2018-05-16T01:24:13.520Z,10.00
2018-05-16T01:25:13.507Z,9.90
2018-05-16T01:26:13.512Z,10.10
2018-05-16T01:27:13.541Z,10.00
2018-05-16T01:28:13.530Z,10.10
2018-05-16T01:29:13.522Z,10.20
2018-05-16T01:30:13.552Z,12.50
2018-05-16T01:31:13.533Z,10.00
2018-05-16T01:32:13.544Z,10.10
2018-05-16T01:33:13.537Z,9.10
2018-05-16T01:34:13.534Z,8.80
2018-05-16T01:35:13.538Z,8.90
2018-05-16T01:36:13.545Z,9.30
2018-05-16T01:37:13.556Z,8.80
2018-05-16T01:38:13.552Z,8.70
2018-05-16T01:39:13.564Z,8.90
2018-05-16T01:40:14.157Z,8.50
2018-05-16T01:41:13.569Z,8.70
2018-05-16T01:42:13.565Z,8.50
2018-05-16T01:43:13.580Z,8.40
2018-05-16T01:44:13.592Z,8.80
2018-05-16T01:45:13.579Z,8.70
2018-05-16T01:46:13.578Z,8.10
2018-05-16T01:47:13.579Z,8.70
2018-05-16T01:48:13.590Z,7.80
2018-05-16T01:49:13.592Z,8.00
2018-05-16T01:50:13.598Z,8.30
2018-05-16T01:51:13.604Z,8.50
2018-05-16T01:52:13.608Z,8.40
2018-05-16T01:53:13.608Z,8.30
2018-05-16T01:54:13.598Z,9.00
2018-05-16T01:55:13.607Z,7.90
2018-05-16T01:56:13.616Z,8.70
2018-05-16T01:57:13.619Z,9.00
2018-05-16T01:58:13.619Z,8.80
2018-05-16T01:59:13.617Z,8.40
2018-05-16T02:00:13.628Z,8.90
2018-05-16T02:01:13.632Z,8.70
2018-05-16T02:02:13.631Z,9.10
2018-05-16T02:03:13.634Z,9.30
2018-05-16T02:04:13.627Z,8.30
2018-05-16T02:05:13.643Z,9.20
2018-05-16T02:06:13.639Z,9.40
2018-05-16T02:07:13.654Z,8.90
2018-05-16T02:08:13.688Z,9.60
2018-05-16T02:09:13.656Z,8.90
2018-05-16T02:10:13.657Z,8.40
2018-05-16T02:11:13.682Z,9.40
2018-05-16T02:12:13.671Z,9.00
2018-05-16T02:13:13.660Z,8.50
2018-05-16T02:14:13.665Z,9.60
2018-05-16T02:15:13.692Z,8.70
2018-05-16T02:16:13.684Z,10.20
2018-05-16T02:17:13.680Z,9.10
2018-05-16T02:18:13.682Z,9.30
2018-05-16T02:19:13.688Z,9.70
2018-05-16T02:20:13.696Z,9.20
2018-05-16T02:21:13.759Z,9.20
2018-05-16T02:22:13.694Z,8.70
2018-05-16T02:23:13.699Z,9.50
2018-05-16T02:24:13.704Z,11.20
2018-05-16T02:25:13.705Z,9.50
2018-05-16T02:26:13.712Z,9.30
2018-05-16T02:27:13.707Z,9.80
2018-05-16T02:28:13.710Z,9.20
2018-05-16T02:29:13.727Z,9.50
2018-05-16T02:30:13.723Z,10.00
2018-05-16T02:31:13.719Z,10.00
2018-05-16T02:32:13.728Z,9.40
2018-05-16T02:33:13.727Z,9.20
2018-05-16T02:34:13.740Z,9.60
2018-05-16T02:35:13.736Z,9.40
2018-05-16T02:36:13.741Z,9.50
2018-05-16T02:37:13.737Z,11.00
2018-05-16T02:38:13.735Z,10.00
2018-05-16T02:39:13.744Z,10.00
2018-05-16T02:40:13.750Z,10.20
2018-05-16T02:41:13.743Z,10.90
2018-05-16T02:42:13.762Z,9.70
2018-05-16T02:43:13.764Z,10.10
2018-05-16T02:44:13.758Z,9.30
2018-05-16T02:45:13.771Z,9.80
2018-05-16T02:46:13.768Z,9.80
2018-05-16T02:47:13.813Z,9.50
2018-05-16T02:48:13.783Z,9.70
2018-05-16T02:49:13.778Z,10.40
2018-05-16T02:50:13.787Z,10.40
2018-05-16T02:51:13.785Z,10.20
2018-05-16T02:52:13.784Z,10.60
2018-05-16T02:53:13.797Z,10.20
2018-05-16T02:54:13.794Z,10.10
2018-05-16T02:55:13.805Z,10.60
2018-05-16T02:56:13.803Z,10.20
2018-05-16T02:57:13.806Z,10.80
2018-05-16T02:58:13.809Z,10.70
2018-05-16T02:59:13.800Z,11.10
2018-05-16T03:00:13.871Z,11.10
2018-05-16T03:01:13.810Z,10.40
2018-05-16T03:02:13.951Z,10.40
2018-05-16T03:03:13.819Z,10.70
2018-05-16T03:04:13.826Z,10.40
2018-05-16T03:05:13.824Z,10.80
2018-05-16T03:06:13.836Z,10.90
2018-05-16T03:07:13.835Z,11.60
2018-05-16T03:08:13.834Z,10.50
2018-05-16T03:09:13.839Z,11.00
2018-05-16T03:10:13.858Z,10.70
2018-05-16T03:11:13.861Z,11.40
2018-05-16T03:12:13.848Z,11.10
2018-05-16T03:13:13.850Z,10.60
2018-05-16T03:14:13.849Z,10.80
2018-05-16T03:15:13.947Z,11.30
2018-05-16T03:16:13.856Z,12.20
2018-05-16T03:17:13.865Z,10.80
2018-05-16T03:18:13.864Z,11.40
2018-05-16T03:19:13.870Z,10.60
2018-05-16T03:20:13.866Z,10.60
2018-05-16T03:21:13.880Z,11.40
2018-05-16T03:27:49.683Z,11.80
2018-05-16T03:28:49.656Z,11.60
2018-05-16T03:29:49.658Z,11.90
2018-05-16T03:30:49.665Z,11.50
2018-05-16T03:31:49.671Z,11.20
2018-05-16T03:32:49.680Z,12.10
2018-05-16T03:33:49.664Z,11.70
2018-05-16T03:34:49.664Z,11.60
2018-05-16T03:35:49.679Z,11.60
2018-05-16T03:36:49.686Z,11.80
2018-05-16T03:37:49.687Z,12.70
2018-05-16T03:38:49.687Z,11.10
2018-05-16T03:39:49.680Z,11.70
2018-05-16T03:40:49.690Z,11.50
2018-05-16T03:41:49.687Z,12.00
2018-05-16T03:42:49.703Z,10.70
2018-05-16T03:43:49.705Z,11.10
2018-05-16T03:44:49.698Z,11.80
2018-05-16T03:45:50.642Z,11.40
2018-05-16T03:46:49.715Z,12.10
2018-05-16T03:47:50.643Z,12.20
2018-05-16T03:48:49.731Z,12.10
2018-05-16T03:49:49.721Z,12.60
2018-05-16T03:50:49.738Z,12.60
2018-05-16T03:51:49.722Z,12.50
2018-05-16T03:52:49.788Z,12.80
2018-05-16T03:53:49.728Z,12.10
2018-05-16T03:54:49.745Z,11.90
2018-05-16T03:55:49.749Z,12.40
2018-05-16T03:56:49.741Z,12.30
2018-05-16T03:57:49.746Z,13.30
2018-05-16T03:58:49.743Z,12.20
2018-05-16T03:59:49.751Z,12.40
2018-05-16T04:00:49.754Z,12.40
2018-05-16T04:01:49.764Z,13.10
2018-05-16T04:02:49.762Z,12.90
2018-05-16T04:03:49.756Z,12.50
2018-05-16T04:04:49.763Z,12.90
2018-05-16T04:05:49.783Z,12.30
2018-05-16T04:06:49.765Z,12.30
2018-05-16T04:07:49.776Z,12.00
2018-05-16T04:08:49.778Z,12.40
2018-05-16T04:09:49.773Z,12.80
2018-05-16T04:10:49.782Z,12.20
2018-05-16T04:11:49.781Z,13.00
2018-05-16T04:12:49.786Z,13.30
2018-05-16T04:13:49.786Z,12.60
2018-05-16T04:14:49.781Z,13.40
2018-05-16T04:15:49.802Z,12.70
2018-05-16T04:16:49.799Z,13.00
2018-05-16T04:17:49.801Z,13.40
2018-05-16T04:18:50.656Z,12.10
2018-05-16T04:19:49.811Z,13.20
2018-05-16T04:20:49.816Z,12.40
2018-05-16T04:21:49.813Z,12.40
2018-05-16T04:22:49.807Z,13.30
2018-05-16T04:23:49.821Z,11.90
2018-05-16T04:24:49.823Z,12.50
2018-05-16T04:25:49.830Z,12.20
2018-05-16T04:26:49.831Z,12.30
2018-05-16T04:27:49.842Z,12.50
2018-05-16T04:28:49.934Z,11.90
2018-05-16T04:29:49.836Z,12.60
2018-05-16T04:30:49.833Z,12.60
2018-05-16T04:31:50.661Z,12.90
2018-05-16T04:32:49.833Z,13.40
2018-05-16T04:33:49.852Z,13.50
2018-05-16T04:34:49.850Z,12.80
2018-05-16T04:35:49.848Z,12.70
2018-05-16T04:36:49.855Z,12.60
2018-05-16T04:37:49.851Z,12.80
2018-05-16T04:38:49.873Z,13.50
2018-05-16T04:39:49.855Z,12.50
2018-05-16T04:40:49.863Z,12.70
2018-05-16T04:41:49.886Z,12.70
2018-05-16T04:42:49.865Z,12.40
2018-05-16T04:43:49.886Z,13.40
2018-05-16T04:44:49.882Z,12.90
2018-05-16T04:45:49.883Z,13.70
2018-05-16T04:46:49.880Z,13.70
2018-05-16T04:47:49.889Z,12.90
2018-05-16T04:48:49.894Z,12.70
2018-05-16T04:49:49.894Z,12.70
2018-05-16T04:50:49.904Z,12.70
2018-05-16T04:51:49.897Z,11.90
2018-05-16T04:52:49.923Z,12.30
2018-05-16T04:53:49.893Z,13.60
2018-05-16T04:54:49.908Z,12.80
2018-05-16T04:55:49.913Z,12.80
2018-05-16T04:56:49.911Z,11.90
2018-05-16T04:57:49.910Z,12.10
2018-05-16T04:58:49.910Z,12.70
2018-05-16T04:59:49.925Z,12.60
2018-05-16T05:00:49.933Z,12.00
2018-05-16T05:01:49.929Z,13.10
2018-05-16T05:02:49.932Z,12.80
2018-05-16T05:03:49.928Z,12.80
2018-05-16T05:04:49.936Z,12.70
2018-05-16T05:05:49.931Z,12.40
2018-05-16T05:06:49.938Z,12.60
2018-05-16T05:07:49.936Z,12.50
2018-05-16T05:08:49.950Z,12.60
2018-05-16T05:09:49.947Z,13.10
2018-05-16T05:10:49.969Z,12.80
2018-05-16T05:11:49.966Z,12.90
2018-05-16T05:12:49.960Z,14.10
2018-05-16T05:13:49.963Z,13.80
2018-05-16T05:14:49.972Z,12.60
2018-05-16T05:15:49.972Z,12.80
2018-05-16T05:16:49.975Z,13.30
2018-05-16T05:17:49.976Z,11.90
2018-05-16T05:18:50.071Z,12.40
2018-05-16T05:19:49.984Z,12.70
2018-05-16T05:20:49.991Z,12.30
2018-05-16T05:21:49.993Z,12.20
2018-05-16T05:22:50.002Z,12.20
2018-05-16T05:23:49.997Z,12.70
2018-05-16T05:24:49.992Z,11.40
2018-05-16T05:25:49.999Z,10.90
2018-05-16T05:26:50.005Z,10.60
2018-05-16T05:27:50.004Z,11.10
2018-05-16T05:28:50.000Z,10.00
2018-05-16T05:29:50.013Z,10.50
2018-05-16T05:30:50.016Z,10.90
2018-05-16T05:31:50.014Z,10.90
2018-05-16T05:32:50.681Z,11.10
2018-05-16T05:33:50.027Z,10.00
2018-05-16T05:34:50.029Z,10.10
2018-05-16T05:35:50.037Z,10.00
2018-05-16T05:36:50.045Z,9.70
2018-05-16T05:37:50.062Z,8.50
2018-05-16T05:38:50.048Z,8.70
2018-05-16T05:39:50.048Z,9.10
2018-05-16T05:40:50.068Z,12.50
2018-05-16T05:41:50.069Z,9.10
2018-05-16T05:42:50.060Z,8.70
2018-05-16T05:43:50.064Z,8.70
2018-05-16T05:44:50.065Z,9.10
2018-05-16T05:45:50.070Z,7.90
2018-05-16T05:46:50.081Z,9.50
2018-05-16T05:47:50.078Z,8.40
2018-05-16T05:48:50.085Z,8.50
2018-05-16T05:49:50.098Z,9.00
2018-05-16T05:50:50.139Z,9.30
2018-05-16T05:51:50.107Z,8.30
2018-05-16T05:52:50.111Z,8.90
2018-05-16T05:53:50.117Z,8.70
2018-05-16T05:54:50.125Z,9.40
2018-05-16T05:55:50.129Z,9.40
2018-05-16T05:56:50.130Z,8.90
2018-05-16T05:57:50.138Z,9.40
2018-05-16T05:58:50.151Z,9.50
2018-05-16T05:59:50.156Z,9.60
2018-05-16T06:00:50.696Z,9.30
2018-05-16T06:01:50.177Z,10.50
2018-05-16T06:02:50.181Z,10.30
2018-05-16T06:03:50.178Z,9.80
2018-05-16T06:04:50.181Z,9.60
2018-05-16T06:05:50.185Z,9.70
2018-05-16T06:06:50.200Z,9.60
2018-05-16T06:07:50.213Z,9.10
2018-05-16T06:08:50.208Z,10.50
2018-05-16T06:09:50.207Z,10.50
2018-05-16T06:10:50.219Z,11.00
2018-05-16T06:11:50.224Z,10.30
2018-05-16T06:12:50.373Z,10.70
2018-05-16T06:13:50.228Z,10.50
2018-05-16T06:14:50.263Z,11.10
2018-05-16T06:15:50.250Z,10.80
2018-05-16T06:16:50.255Z,10.80
2018-05-16T06:17:50.280Z,10.50
2018-05-16T06:18:50.264Z,10.10
2018-05-16T06:19:50.325Z,11.00
2018-05-16T06:20:50.281Z,10.90
2018-05-16T06:21:50.268Z,10.70
2018-05-16T06:22:50.287Z,10.80
2018-05-16T06:23:50.294Z,10.50
2018-05-16T06:24:50.296Z,10.90
2018-05-16T06:25:50.302Z,9.90
2018-05-16T06:26:50.305Z,10.80
2018-05-16T06:27:50.738Z,10.30
2018-05-16T06:28:50.314Z,13.20
2018-05-16T06:29:50.320Z,11.70
2018-05-16T06:30:50.323Z,11.60
2018-05-16T06:31:50.354Z,11.70
2018-05-16T06:32:50.454Z,11.40
2018-05-16T06:33:51.234Z,12.10
2018-05-16T06:34:50.470Z,12.10
2018-05-16T06:35:50.357Z,12.00
2018-05-16T06:36:50.374Z,13.70
2018-05-16T06:37:50.409Z,12.50
2018-05-16T06:38:50.389Z,12.90
2018-05-16T06:39:50.396Z,12.30
2018-05-16T06:40:50.399Z,11.70
2018-05-16T06:41:50.404Z,11.70
2018-05-16T06:42:50.424Z,11.80
2018-05-16T06:43:50.417Z,12.40
2018-05-16T06:44:50.423Z,11.80
2018-05-16T06:45:50.724Z,12.40
2018-05-16T06:46:50.502Z,12.20
2018-05-16T06:47:50.452Z,12.40
2018-05-16T06:48:50.457Z,12.40
2018-05-16T06:49:50.503Z,11.90
2018-05-16T06:50:51.344Z,12.10
2018-05-16T06:51:50.492Z,12.00
2018-05-16T06:52:50.521Z,12.10
2018-05-16T06:53:50.499Z,12.20
2018-05-16T06:54:50.537Z,12.90
2018-05-16T06:55:50.523Z,12.30
2018-05-16T06:56:50.527Z,13.40
2018-05-16T06:57:50.559Z,14.00
2018-05-16T06:58:51.247Z,12.70
2018-05-16T06:59:50.531Z,12.60
2018-05-16T07:00:50.565Z,13.20
2018-05-16T07:01:50.618Z,13.90
2018-05-16T07:02:50.607Z,13.80
2018-05-16T07:03:50.596Z,13.50
2018-05-16T07:04:50.583Z,14.20
2018-05-16T07:05:51.232Z,15.00
2018-05-16T07:06:50.591Z,13.20
2018-05-16T07:07:50.620Z,13.70
2018-05-16T07:08:50.614Z,14.20
2018-05-16T07:09:50.618Z,15.50
2018-05-16T07:10:50.625Z,14.50
2018-05-16T07:11:50.688Z,16.70
2018-05-16T07:12:50.688Z,16.80
2018-05-16T07:13:50.652Z,14.60
2018-05-16T07:14:50.657Z,15.30
2018-05-16T07:15:50.693Z,15.90
2018-05-16T07:16:50.665Z,15.00
2018-05-16T07:17:50.701Z,15.70
2018-05-16T07:18:50.679Z,16.70
2018-05-16T07:19:50.670Z,17.10
2018-05-16T07:20:50.708Z,16.70
2018-05-16T07:21:51.235Z,16.60
2018-05-16T07:22:50.748Z,16.00
2018-05-16T07:23:50.717Z,18.20
2018-05-16T07:24:51.264Z,17.80
2018-05-16T07:25:50.711Z,17.50
2018-05-16T07:26:50.719Z,17.40
2018-05-16T07:27:51.317Z,18.50
2018-05-16T07:28:50.725Z,18.30
2018-05-16T07:29:51.741Z,18.30
2018-05-16T07:30:50.726Z,18.20
2018-05-16T07:31:50.800Z,18.20
2018-05-16T07:32:50.746Z,19.30
2018-05-16T07:33:50.764Z,18.10
2018-05-16T07:34:50.787Z,18.60
2018-05-16T07:35:50.752Z,18.40
2018-05-16T07:36:50.766Z,19.30
2018-05-16T07:37:50.767Z,20.10
2018-05-16T07:38:50.770Z,18.50
2018-05-16T07:39:50.795Z,17.70
2018-05-16T07:40:50.912Z,18.70
2018-05-16T07:41:50.867Z,18.30
2018-05-16T07:42:51.806Z,19.00
2018-05-16T07:43:50.795Z,19.30
2018-05-16T07:44:50.792Z,19.60
2018-05-16T07:45:50.796Z,19.30
2018-05-16T07:46:50.814Z,18.80
2018-05-16T07:47:50.816Z,18.90
2018-05-16T07:48:50.814Z,19.80
2018-05-16T07:49:50.837Z,18.70
2018-05-16T07:50:50.823Z,19.00
2018-05-16T07:51:50.855Z,19.40
2018-05-16T07:52:50.834Z,18.90
2018-05-16T07:53:50.845Z,19.90
2018-05-16T07:54:50.848Z,19.50
2018-05-16T07:55:50.962Z,18.60
2018-05-16T07:56:50.857Z,18.30
2018-05-16T07:57:50.853Z,18.00
2018-05-16T07:58:51.751Z,18.90
2018-05-16T07:59:50.868Z,19.10
2018-05-16T08:00:50.927Z,19.70
2018-05-16T08:01:50.891Z,19.40
2018-05-16T08:02:50.884Z,19.20
2018-05-16T08:03:50.899Z,19.30
2018-05-16T08:04:50.891Z,19.60
2018-05-16T08:05:50.878Z,19.10
2018-05-16T08:06:50.894Z,19.20
2018-05-16T08:07:50.953Z,20.00
2018-05-16T08:08:50.989Z,20.20
2018-05-16T08:09:50.896Z,19.70
2018-05-16T08:10:50.902Z,20.00
2018-05-16T08:11:50.909Z,19.80
2018-05-16T08:12:50.915Z,19.50
2018-05-16T08:13:50.926Z,21.00
2018-05-16T08:14:50.926Z,21.80
2018-05-16T08:15:50.938Z,22.90
2018-05-16T08:16:50.944Z,22.50
2018-05-16T08:17:51.003Z,22.80
2018-05-16T08:18:50.940Z,23.10
2018-05-16T08:19:50.960Z,23.10
2018-05-16T08:20:50.943Z,22.90
2018-05-16T08:21:51.015Z,23.50
2018-05-16T08:22:50.972Z,23.30
2018-05-16T08:23:51.080Z,22.20
2018-05-16T08:24:50.975Z,23.10
2018-05-16T08:25:50.984Z,23.30
2018-05-16T08:26:50.987Z,22.40
2018-05-16T08:27:51.809Z,22.50
2018-05-16T08:29:03.528Z,22.80
2018-05-16T08:29:51.174Z,22.90
2018-05-16T08:30:55.393Z,22.40
2018-05-16T08:32:04.854Z,22.90
2018-05-16T08:32:54.944Z,23.00
2018-05-16T08:34:01.417Z,22.50
2018-05-16T08:34:51.212Z,22.20
2018-05-16T08:35:51.277Z,22.90
2018-05-16T08:36:51.739Z,22.20
2018-05-16T08:39:24.247Z,22.50
2018-05-16T08:41:36.525Z,22.00
2018-05-16T08:42:36.521Z,21.90
2018-05-16T08:43:36.483Z,23.30
2018-05-16T08:44:36.524Z,21.60
2018-05-16T08:45:36.887Z,21.70
2018-05-16T08:46:36.560Z,21.90
2018-05-16T08:47:36.504Z,21.70
2018-05-16T08:48:36.650Z,22.10
2018-05-16T08:49:36.614Z,21.80
2018-05-16T08:50:36.532Z,20.60
2018-05-16T08:51:36.534Z,22.40
2018-05-16T08:52:36.599Z,21.00
2018-05-16T08:53:36.545Z,21.30
2018-05-16T08:54:36.565Z,19.80
2018-05-16T08:55:36.565Z,20.80
2018-05-16T08:56:36.570Z,20.20
2018-05-16T08:57:36.576Z,19.90
2018-05-16T08:58:36.591Z,19.70
2018-05-16T08:59:36.670Z,19.70
2018-05-16T09:00:36.843Z,20.00
2018-05-16T09:01:36.635Z,21.80
2018-05-16T09:02:36.653Z,18.70
2018-05-16T09:03:36.632Z,19.30
2018-05-16T09:04:36.669Z,18.80
2018-05-16T09:05:36.681Z,19.00
2018-05-16T09:06:36.645Z,17.30
2018-05-16T09:07:36.649Z,16.60
2018-05-16T09:08:36.789Z,16.50
2018-05-16T09:09:37.474Z,16.20
2018-05-16T09:10:36.738Z,15.40
2018-05-16T09:11:36.775Z,15.70
2018-05-16T09:12:36.759Z,15.50
2018-05-16T09:13:36.741Z,15.00
2018-05-16T09:14:36.777Z,15.50
2018-05-16T09:15:36.709Z,15.10
2018-05-16T09:16:37.801Z,15.90
2018-05-16T09:17:36.820Z,14.70
2018-05-16T09:18:36.762Z,15.10
2018-05-16T09:19:36.804Z,14.90
2018-05-16T09:20:36.791Z,14.70
2018-05-16T09:21:36.916Z,14.90
2018-05-16T09:22:36.844Z,14.30
2018-05-16T09:23:36.810Z,15.10
2018-05-16T09:24:36.828Z,14.50
2018-05-16T09:25:36.810Z,14.90
2018-05-16T09:26:36.926Z,15.30
2018-05-16T09:27:37.486Z,15.80
2018-05-16T09:28:36.864Z,14.00
2018-05-16T09:29:36.959Z,14.10
2018-05-16T09:30:36.861Z,14.90
2018-05-16T09:31:36.909Z,15.10
2018-05-16T09:32:37.484Z,14.00
2018-05-16T09:33:37.141Z,14.50
2018-05-16T09:34:36.972Z,14.50
2018-05-16T09:35:36.979Z,13.70
2018-05-16T09:36:37.490Z,15.90
2018-05-16T09:37:37.027Z,14.50
2018-05-16T09:38:36.981Z,14.60
2018-05-16T09:39:37.003Z,14.20
2018-05-16T09:40:37.098Z,14.10
2018-05-16T09:41:37.017Z,14.20
2018-05-16T09:42:37.040Z,14.90
2018-05-16T09:43:37.041Z,14.80
2018-05-16T09:44:37.079Z,15.00
2018-05-16T09:45:37.037Z,15.40
2018-05-16T09:46:37.007Z,14.20
2018-05-16T09:47:37.069Z,15.10
2018-05-16T09:48:37.080Z,13.40
2018-05-16T09:49:37.067Z,15.60
2018-05-16T09:50:37.218Z,21.40
2018-05-16T09:51:37.086Z,14.80
2018-05-16T09:52:37.149Z,14.20
2018-05-16T09:53:37.127Z,15.00
2018-05-16T09:54:37.129Z,14.30
2018-05-16T09:55:37.204Z,15.20
2018-05-16T09:56:37.129Z,14.90
2018-05-16T09:57:37.169Z,14.40
2018-05-16T09:58:37.138Z,14.70
2018-05-16T09:59:38.010Z,13.80
2018-05-16T10:00:37.222Z,13.30
2018-05-16T10:01:37.212Z,13.70
2018-05-16T10:02:37.179Z,13.50
2018-05-16T10:03:37.134Z,13.90
2018-05-16T10:04:37.172Z,13.50
2018-05-16T10:05:37.175Z,14.00
2018-05-16T10:06:37.170Z,14.80
2018-05-16T10:07:38.002Z,14.30
2018-05-16T10:08:37.203Z,14.00
2018-05-16T10:09:37.261Z,13.40
2018-05-16T10:10:37.200Z,14.00
2018-05-16T10:11:37.248Z,13.60
2018-05-16T10:12:37.252Z,12.40
2018-05-16T10:13:37.253Z,14.60
2018-05-16T10:14:37.253Z,16.00
2018-05-16T10:15:37.270Z,13.10
2018-05-16T10:16:37.297Z,13.80
2018-05-16T10:17:37.268Z,14.10
2018-05-16T10:18:37.368Z,14.20
2018-05-16T10:19:37.277Z,13.90
2018-05-16T10:20:37.439Z,13.60
2018-05-16T10:21:37.291Z,13.20
2018-05-16T10:22:37.322Z,13.90
2018-05-16T10:23:37.389Z,13.20
2018-05-16T10:24:37.306Z,15.50
2018-05-16T10:25:37.309Z,14.70
2018-05-16T10:26:37.325Z,14.00
2018-05-16T10:27:37.338Z,12.40
2018-05-16T10:28:38.095Z,12.80
2018-05-16T10:29:37.349Z,12.50
2018-05-16T10:30:37.357Z,13.30
2018-05-16T10:31:37.359Z,24.70
2018-05-16T10:32:37.362Z,12.60
2018-05-16T10:33:37.391Z,13.40
2018-05-16T10:34:37.458Z,11.60
2018-05-16T10:35:37.396Z,12.60
2018-05-16T10:36:37.399Z,12.40
2018-05-16T10:37:37.401Z,12.60
2018-05-16T10:38:37.440Z,12.50
2018-05-16T10:39:37.437Z,12.20
2018-05-16T10:40:37.423Z,11.30
2018-05-16T10:41:37.474Z,13.00
2018-05-16T10:42:37.435Z,12.60
2018-05-16T10:43:37.460Z,11.70
2018-05-16T10:44:37.482Z,12.60
2018-05-16T10:45:37.505Z,13.60
2018-05-16T10:47:59.099Z,14.90
2018-05-16T10:48:59.011Z,12.90
2018-05-16T10:49:59.829Z,13.10
2018-05-16T10:50:59.197Z,13.30
2018-05-16T10:51:59.072Z,12.10
2018-05-16T10:52:59.035Z,12.70
2018-05-16T10:53:59.122Z,12.60
2018-05-16T10:54:59.117Z,12.90
2018-05-16T10:55:59.154Z,12.00
2018-05-16T10:56:59.145Z,12.00
2018-05-16T10:58:00.027Z,11.80
2018-05-16T10:58:59.186Z,11.50
2018-05-16T10:59:59.112Z,12.10
2018-05-16T11:00:59.213Z,11.80
2018-05-16T11:01:59.177Z,10.80
2018-05-16T11:02:59.176Z,11.90
2018-05-16T11:03:59.730Z,10.70
2018-05-16T11:04:59.261Z,10.30
2018-05-16T11:05:59.141Z,10.00
2018-05-16T11:06:59.190Z,10.20
2018-05-16T11:07:59.183Z,9.70
2018-05-16T11:08:59.172Z,9.60
2018-05-16T11:09:59.200Z,9.60
2018-05-16T11:11:00.147Z,9.70
2018-05-16T11:11:59.541Z,10.50
2018-05-16T11:13:00.134Z,10.90
2018-05-16T11:13:59.215Z,8.40
2018-05-16T11:14:59.304Z,10.10
2018-05-16T11:15:59.273Z,9.70
2018-05-16T11:16:59.306Z,9.70
2018-05-16T11:17:59.292Z,10.20
2018-05-16T11:18:59.252Z,9.70
2018-05-16T11:19:59.423Z,9.90
2018-05-16T11:20:59.389Z,10.00
2018-05-16T11:21:59.418Z,10.10
2018-05-16T11:22:59.311Z,17.30
2018-05-16T11:23:59.319Z,9.50
2018-05-16T11:24:59.409Z,9.20
2018-05-16T11:25:59.467Z,10.60
2018-05-16T11:27:00.236Z,9.50
2018-05-16T11:27:59.776Z,9.70
2018-05-16T11:28:59.361Z,8.70
2018-05-16T11:29:59.383Z,9.20
2018-05-16T11:31:00.432Z,8.80
2018-05-16T11:32:01.034Z,8.40
2018-05-16T11:32:59.478Z,8.60
2018-05-16T11:33:59.438Z,8.00
2018-05-16T11:34:59.791Z,9.50
2018-05-16T11:35:59.663Z,9.60
2018-05-16T11:36:59.453Z,9.40
2018-05-16T11:38:00.355Z,8.00
2018-05-16T11:38:59.410Z,10.70
2018-05-16T11:39:59.499Z,9.80
2018-05-16T11:40:59.479Z,7.90
2018-05-16T11:41:59.560Z,9.10
2018-05-16T11:42:59.847Z,9.00
2018-05-16T11:43:59.507Z,8.80
2018-05-16T11:44:59.478Z,8.40
2018-05-16T11:45:59.635Z,8.00
2018-05-16T11:46:59.621Z,10.60
2018-05-16T11:47:59.593Z,8.20
2018-05-16T11:48:59.686Z,8.20
2018-05-16T11:49:59.611Z,8.40
2018-05-16T11:50:59.525Z,9.40
2018-05-16T11:51:59.747Z,8.40
2018-05-16T11:53:34.295Z,10.70
2018-05-16T11:55:30.425Z,9.40
2018-05-16T11:56:00.391Z,8.90
2018-05-16T11:56:59.644Z,8.20
2018-05-16T11:57:59.794Z,9.40
2018-05-16T11:59:00.388Z,8.30
2018-05-16T11:59:59.641Z,7.60
2018-05-16T12:00:59.621Z,9.50
2018-05-16T12:01:59.640Z,8.10
2018-05-16T12:02:59.774Z,8.60
2018-05-16T12:03:59.635Z,8.00
2018-05-16T12:04:59.972Z,7.80
2018-05-16T12:06:00.924Z,8.50
2018-05-16T12:06:59.876Z,8.20
2018-05-16T12:07:59.718Z,8.60
2018-05-16T12:08:59.610Z,8.00
2018-05-16T12:09:59.703Z,8.20
2018-05-16T12:10:59.695Z,9.30
2018-05-16T12:11:59.768Z,8.60
2018-05-16T12:12:59.794Z,9.00
2018-05-16T12:13:59.713Z,9.90
2018-05-16T12:15:00.036Z,9.40
2018-05-16T12:15:59.746Z,9.10
2018-05-16T12:16:59.879Z,9.30
2018-05-16T12:18:01.174Z,10.00
2018-05-16T12:18:59.914Z,9.10
2018-05-16T12:19:59.654Z,9.30
2018-05-16T12:20:59.697Z,11.70
2018-05-16T12:21:59.684Z,10.00
2018-05-16T12:22:59.872Z,9.00
2018-05-16T12:23:59.809Z,9.40
2018-05-16T12:24:59.901Z,9.50
2018-05-16T12:25:59.893Z,10.40
2018-05-16T12:26:59.750Z,10.50
2018-05-16T12:28:01.037Z,10.40
2018-05-16T12:29:02.896Z,11.60
2018-05-16T12:30:00.684Z,11.10
2018-05-16T12:31:03.824Z,12.60
2018-05-16T12:31:59.934Z,10.30
2018-05-16T12:33:00.412Z,11.50
2018-05-16T12:34:00.416Z,11.30
2018-05-16T12:35:00.184Z,10.70
2018-05-16T12:35:59.943Z,11.20
2018-05-16T12:37:00.442Z,12.00
2018-05-16T12:37:59.985Z,10.90
2018-05-16T12:39:00.416Z,10.40
2018-05-16T12:40:01.043Z,11.00
2018-05-16T12:40:59.985Z,11.40
2018-05-16T12:41:59.867Z,11.40
2018-05-16T12:42:59.874Z,11.30
2018-05-16T12:44:00.053Z,11.30
2018-05-16T12:44:59.921Z,11.10
2018-05-16T12:46:00.530Z,11.40
2018-05-16T12:47:00.474Z,11.20
2018-05-16T12:48:00.009Z,11.30
2018-05-16T12:49:00.146Z,10.90
2018-05-16T12:49:59.897Z,11.50
2018-05-16T12:51:00.005Z,10.70
2018-05-16T12:52:00.058Z,11.30
2018-05-16T12:53:00.460Z,13.10
2018-05-16T12:53:59.999Z,13.00
2018-05-16T12:54:59.953Z,15.30
2018-05-16T12:56:00.026Z,13.80
2018-05-16T12:57:00.705Z,12.40
2018-05-16T12:57:59.967Z,13.00
2018-05-16T12:59:00.307Z,12.40
2018-05-16T13:00:00.279Z,12.40
2018-05-16T13:01:00.301Z,13.80
2018-05-16T13:02:00.238Z,15.90
2018-05-16T13:03:00.111Z,15.20
2018-05-16T13:04:01.040Z,15.40
2018-05-16T13:05:00.266Z,15.20
2018-05-16T13:06:01.196Z,13.70
2018-05-16T13:07:01.700Z,14.30
2018-05-16T13:08:00.362Z,14.00
2018-05-16T13:09:01.537Z,14.60
2018-05-16T13:10:00.618Z,16.30
2018-05-16T13:11:00.591Z,15.10
2018-05-16T13:12:00.254Z,15.80
2018-05-16T13:13:00.284Z,14.70
2018-05-16T13:14:00.384Z,15.20
2018-05-16T13:15:01.222Z,16.50
2018-05-16T13:16:00.248Z,16.10
2018-05-16T13:17:00.218Z,14.30
2018-05-16T13:18:00.583Z,18.10
2018-05-16T13:19:00.227Z,17.30